KDNV/DNV METAR and TAF weather

Enter ICAO airport designator
Station Type Date Time Source
KDNV METAR 2019/08/19 07:35 UTC NOAA

KDNV 190735Z AUTO 00000KT 7SM SCT025 SCT041 SCT055 20/20 A2994 RMK AO2 T01970197


Station Type Date Time Source
KDNV Decoded METAR 2019/08/19 07:35 UTC NOAA

Station name not available
Aug 19, 2019 - 03:35 AM EDT / 2019.08.19 0735 UTC
Wind: Calm:0
Visibility: 7 mile(s):0
Sky conditions: partly cloudy
Temperature: 67.5 F (19.7 C)
Dew Point: 67.5 F (19.7 C)
Relative Humidity: 100%
Pressure (altimeter): 29.94 in. Hg (1013 hPa)
ob: KDNV 190735Z AUTO 00000KT 7SM SCT025 SCT041 SCT055 20/20 A2994 RMK AO2 T01970197
cycle: 7

Station Type Date Time Source
KDNV TAF UTC NOAA

Error!

Example: see airport list